No se requiere un especial cuidado respecto a la situación meteorológica.   -   No hay avisos

Informes METAR

 

LEZL - Sevilla, Spain
Distancia de la estación: ENE 8km
Actualización: 12/02/2016 18:30
Muy nuboso
Muy nuboso
 Viento de OSO
Viento: OSO 24 km/h
Temperatura: 17°C
Rocío: 15°C
Humedad: 88%
Barómetro: 1018 hPa
Nubes: Muy nuboso
Visibilidad: 10 km
Detalles de las nubes: Muy nuboso 366 m
2016/02/12 17:30 LEZL 121730Z 24013KT 9999 BKN012 17/15 Q1018 NOSIG
LEMO - Morón, Spain
Distancia de la estación: SE 43km
Actualización: 12/02/2016 18:00
Llovizna, Cubierto
Llovizna, Cubierto
 Viento de OSO
Viento: OSO 28 km/h
Temperatura: 16°C
Rocío: 16°C
Humedad: 100%
Barómetro: 1019 hPa
Resumen: Llovizna
Nubes: Cubierto
Visibilidad: 2 km
Detalles de las nubes: Cubierto 183 m
2016/02/12 17:00 LEMO 121700Z 24015KT 210V280 2000 -DZ OVC006 16/16 Q1019 NOSIG
LEJR - Jeréz, Spain
Distancia de la estación: S 71km
Actualización: 12/02/2016 18:41
Llovizna, Cubierto
Llovizna, Cubierto
 Viento de OSO
Viento: OSO 26 km/h
Temperatura: 17°C
Rocío: 17°C
Humedad: 100%
Barómetro: 1020 hPa
Resumen: Llovizna
Nubes: Cubierto
Visibilidad: 10 km
Detalles de las nubes: Cubierto 213 m
2016/02/12 17:41 LEJR 121741Z 24014KT 200V260 9999 4500S -DZ OVC007 17/17 Q1020
 
LERT - Rota, Spain
Distancia de la estación: SSO 89km
Actualización: 12/02/2016 18:00
Cubierto
Cubierto
 Viento de OSO
Viento: OSO 24 km/h
Temperatura: 17°C
Rocío: 16°C
Humedad: 94%
Barómetro: 1020 hPa
Nubes: Cubierto
Visibilidad: 10 km
Detalles de las nubes: Parcialmente nuboso 183 m
Cubierto 549 m
2016/02/12 17:00 LERT 121700Z 24013KT 9999 SCT006 OVC018 17/16 Q1020 TEMPO 3000 RA OVC009
LEMG - Málaga, Spain
Distancia de la estación: ESE 157km
Actualización: 12/02/2016 18:30
Parcialmente nuboso
Parcialmente nuboso
 Viento de variable
Viento: variable 2 km/h
Temperatura: 19°C
Rocío: 13°C
Humedad: 68%
Barómetro: 1018 hPa
Nubes: Parcialmente nuboso
Visibilidad: 10 km
Detalles de las nubes: Poco nuboso 1372 m
Parcialmente nuboso 1829 m
2016/02/12 17:30 LEMG 121730Z VRB01KT 9999 FEW045 SCT060 19/13 Q1018 NOSIG
LEBA - Córdoba, Spain
Distancia de la estación: ENE 115km
Actualización: 12/02/2016 18:00
Lluvia débil, Cubierto
Lluvia débil, Cubierto
 Viento de OSO
Viento: OSO 24 km/h
Temperatura: 15°C
Rocío: 15°C
Humedad: 100%
Barómetro: 1017 hPa
Resumen: Lluvia débil
Nubes: Cubierto
Visibilidad: 3 km
Detalles de las nubes: Cubierto 213 m
2016/02/12 17:00 LEBA 121700Z 25013KT 210V280 3000 -RA OVC007 15/15 Q1017
 
LEGR - Granada, Spain
Distancia de la estación: E 198km
Actualización: 12/02/2016 18:30
Lluvia débil, Neblina, Cubierto
Lluvia débil, Neblina, Cubierto
 Viento de O
Viento: O 9 km/h
Temperatura: 13°C
Rocío: 13°C
Humedad: 100%
Barómetro: 1019 hPa
Resumen: Lluvia débil, Neblina
Nubes: Cubierto
Visibilidad: 5 km
Detalles de las nubes: Poco nuboso 122 m
Muy nuboso 213 m
Cubierto 366 m
2016/02/12 17:30 LEGR 121730Z 28005KT 230V340 4500 -RA BR FEW004 BKN007 OVC012 13/13 Q1019
LEAM - Almería, Spain
Distancia de la estación: E 326km
Actualización: 12/02/2016 18:30
Parcialmente nuboso
Parcialmente nuboso
 Viento de OSO
Viento: OSO 50 km/h
Temperatura: 17°C
Rocío: 12°C
Humedad: 73%
Barómetro: 1013 hPa
Nubes: Parcialmente nuboso
Visibilidad: 10 km
Detalles de las nubes: Poco nuboso 610 m
Parcialmente nuboso 2438 m
2016/02/12 17:30 LEAM 121730Z 24027KT 9999 FEW020 SCT080 17/12 Q1013
LEMD - Madrid/Barajas, Spain
Distancia de la estación: NNE 402km
Actualización: 12/02/2016 18:30
Muy nuboso
Muy nuboso
 Viento de SO
Viento: SO 28 km/h
Temperatura: 14°C
Rocío: 13°C
Humedad: 94%
Barómetro: 1009 hPa
Nubes: Muy nuboso
Visibilidad: 10 km
Detalles de las nubes: Parcialmente nuboso 457 m
Muy nuboso 1524 m
2016/02/12 17:30 LEMD 121730Z 23015KT 9999 SCT015 BKN050 14/13 Q1009 NOSIG
 
LEVD - Valladolid, Spain
Distancia de la estación: N 492km
Actualización: 12/02/2016 18:30
Muy nuboso
Muy nuboso
 Viento de OSO
Viento: OSO 39 km/h
Temperatura: 12°C
Rocío: 10°C
Humedad: 88%
Barómetro: 1008 hPa
Nubes: Muy nuboso
Visibilidad: 10 km
Detalles de las nubes: Muy nuboso 305 m
2016/02/12 17:30 LEVD 121730Z 25021KT 9999 BKN010 12/10 Q1008
LEBL - Barcelona, Spain
Distancia de la estación: NE 816km
Actualización: 12/02/2016 18:30
Poco nuboso
Poco nuboso
 Viento de OSO
Viento: OSO 24 km/h
Temperatura: 15°C
Rocío: 12°C
Humedad: 82%
Barómetro: 1002 hPa
Nubes: Poco nuboso
Visibilidad: 10 km
Detalles de las nubes: Poco nuboso 1524 m
2016/02/12 17:30 LEBL 121730Z 24013KT 9999 FEW050 15/12 Q1002 NOSIG
LEVC - Valencia, Spain
Distancia de la estación: ENE 535km
Actualización: 12/02/2016 18:30
Poco nuboso
Poco nuboso
 Viento de O
Viento: O 44 km/h, Racha: 63 km/h
Temperatura: 20°C
Rocío: 11°C
Humedad: 56%
Barómetro: 1005 hPa
Nubes: Poco nuboso
Visibilidad: 10 km
Detalles de las nubes: Poco nuboso 914 m
2016/02/12 17:30 LEVC 121730Z 26024G34KT 9999 FEW030 20/11 Q1005 NOSIG